Virgie Cenac — WDC2765 — position and weather

sailwx.info

Track history (hours):
 
Tides and Currents Weather Stations Pressure Air Temp Water Temp Dewpoint Dewpoint Depression Visibility Wind Speed Wind Dir Waves Ship Positions

Virgie Cenac

Owner: Cenac Marine Transportation, Inc., Houma, LA. More information available from US FCC via Universal Licensing System and Coast Guard Vessel Documentation Center.

Last reported at 2015-Apr-18 22:33 UTC. Time now 2015-Apr-18 23:32 UTC.
Position N 29°34' W 090°43'.

Length 18 m; draft 3 m.

Type: Towing. MMSI: 366997430.

Date/timePositionNaut miles runAvg speedWind from/ knotsBaromVisibWave heightAir tempDewpointWater temp
2015-Apr-18 22:33N 29°34' W 090°43'0 0.0
2015-Apr-18 21:33N 29°34' W 090°43'2 1.6
2015-Apr-18 20:33N 29°33' W 090°42'4 3.5
2015-Apr-18 19:33N 29°36' W 090°41'7 6.8
2015-Apr-18 18:33N 29°34' W 090°33'  
2015-Apr-16 07:22N 29°50' W 090°04'30 2.5
2015-Apr-15 19:33N 29°34' W 090°33'5 5.3
2015-Apr-15 18:33N 29°36' W 090°39'4 3.6
2015-Apr-15 17:33N 29°35' W 090°43'1 0.9
2015-Apr-15 16:33N 29°34' W 090°44'  
2015-Apr-11 17:32N 29°35' W 094°56'8 7.9
2015-Apr-11 16:33N 29°42' W 095°00'2 0.8
2015-Apr-11 14:14N 29°41' W 094°59'4 6.2
2015-Apr-11 13:33N 29°37' W 094°57'  
Track history (hours):
 
Tides and Currents Weather Stations Pressure Air Temp Water Temp Dewpoint Dewpoint Depression Visibility Wind Speed Wind Dir Waves Ship Positions

Virgie Cenac

Owner: Cenac Marine Transportation, Inc., Houma, LA. More information available from US FCC via Universal Licensing System and Coast Guard Vessel Documentation Center.

Last reported at 2015-Apr-18 22:33 UTC. Time now 2015-Apr-18 23:32 UTC.
Position N 29°34' W 090°43'.

Length 18 m; draft 3 m.

Type: Towing. MMSI: 366997430.

Date/timePositionNaut miles runAvg speedWind from/ knotsBaromVisibWave heightAir tempDewpointWater temp
2015-Apr-18 22:33N 29°34' W 090°43'0 0.0
2015-Apr-18 21:33N 29°34' W 090°43'2 1.6
2015-Apr-18 20:33N 29°33' W 090°42'4 3.5
2015-Apr-18 19:33N 29°36' W 090°41'7 6.8
2015-Apr-18 18:33N 29°34' W 090°33'  
2015-Apr-16 07:22N 29°50' W 090°04'30 2.5
2015-Apr-15 19:33N 29°34' W 090°33'5 5.3
2015-Apr-15 18:33N 29°36' W 090°39'4 3.6
2015-Apr-15 17:33N 29°35' W 090°43'1 0.9
2015-Apr-15 16:33N 29°34' W 090°44'  
2015-Apr-11 17:32N 29°35' W 094°56'8 7.9
2015-Apr-11 16:33N 29°42' W 095°00'2 0.8
2015-Apr-11 14:14N 29°41' W 094°59'4 6.2
2015-Apr-11 13:33N 29°37' W 094°57'  

Dump ship's entire track history